Canefield Airport

Fair with slight dust haze
33oC (91oF)

Fair with slight dust haze


Winds: East south easterly @ 10kts / 19km/h

Humidity: 46%

Barometric Pressure: 1013 mb

Accumulated Rainfall for May: 19.4 mm

Updated: 16:00 local time (20:00 UTC)

Douglas-Charles Airport

Fair with slight dust haze
29oC (84oF)

Fair with slight dust haze


Winds: South easterly @ 05kts / 09 km/h

Humidity: 82%

Barometric Pressure: 1016 mb

Accumulated Rainfall for May: 130.4 mm

Updated: 18:00 local time (22:00 UTC)

Satellite Imagery

Satellite Imagery
Click image for larger view.
(Source: National Hurricane Center).

Aviation Routine Report (METAR)

Douglas-Charles: METAR TDPD 18200Z 13005KT 9999 FEW020 29/25 Q1016=
Canefield: METAR TDCF 182000Z 12010KT 9999 FEW020 33/20 Q1013=